createdAt,value
2023-05-13T00:00:44.984Z,13
2023-05-13T00:01:51.991Z,13
2023-05-13T00:03:04.185Z,13
2023-05-13T00:04:14.051Z,13
2023-05-13T00:05:20.956Z,13
2023-05-13T00:06:30.604Z,13
2023-05-13T00:07:37.625Z,13
2023-05-13T00:08:44.618Z,12.9
2023-05-13T00:09:51.642Z,12.9
2023-05-13T00:10:59.343Z,12.9
2023-05-13T00:12:06.345Z,13
2023-05-13T00:13:13.275Z,12.9
2023-05-13T00:14:23.213Z,12.9
2023-05-13T00:15:30.280Z,12.9
2023-05-13T00:16:37.180Z,12.9
2023-05-13T00:17:49.705Z,12.9
2023-05-13T00:18:56.652Z,12.9
2023-05-13T00:20:03.527Z,12.9
2023-05-13T00:21:15.733Z,12.9
2023-05-13T00:22:31.909Z,12.9
2023-05-13T00:23:38.897Z,12.9
2023-05-13T00:24:51.076Z,12.9
2023-05-13T00:25:59.208Z,12.9
2023-05-13T00:27:10.998Z,12.9
2023-05-13T00:28:18.117Z,12.9
2023-05-13T00:29:25.048Z,12.8
2023-05-13T00:30:32.418Z,12.8
2023-05-13T00:31:39.531Z,12.8
2023-05-13T00:33:04.272Z,12.8
2023-05-13T00:34:14.056Z,12.7
2023-05-13T00:35:23.987Z,12.7
2023-05-13T00:36:30.929Z,12.7
2023-05-13T00:37:40.932Z,12.7
2023-05-13T00:38:50.556Z,12.6
2023-05-13T00:39:57.771Z,12.6
2023-05-13T00:41:04.990Z,12.6
2023-05-13T00:42:15.193Z,12.6
2023-05-13T00:43:22.253Z,12.6
2023-05-13T00:44:29.928Z,12.6
2023-05-13T00:45:37.006Z,12.6
2023-05-13T00:46:43.942Z,12.6
2023-05-13T00:47:51.248Z,12.5
2023-05-13T00:48:58.476Z,12.4
2023-05-13T00:50:06.002Z,12.4
2023-05-13T00:51:13.513Z,12.4
2023-05-13T00:52:21.550Z,12.4
2023-05-13T00:53:29.078Z,12.4
2023-05-13T00:54:36.256Z,12.4
2023-05-13T00:55:43.244Z,12.4
2023-05-13T00:56:53.175Z,12.4
2023-05-13T00:58:00.182Z,12.4
2023-05-13T00:59:07.161Z,12.4
2023-05-13T01:00:14.133Z,12.5
2023-05-13T01:01:29.252Z,12.4
2023-05-13T01:02:47.173Z,12.4
2023-05-13T01:03:54.128Z,12.4
2023-05-13T01:05:14.292Z,12.4
2023-05-13T01:06:26.563Z,12.4
2023-05-13T01:07:39.661Z,12.4
2023-05-13T01:08:56.737Z,12.4
2023-05-13T01:10:06.702Z,12.4
2023-05-13T01:11:18.726Z,12.4
2023-05-13T01:12:28.461Z,12.4
2023-05-13T01:13:43.632Z,12.4
2023-05-13T01:14:52.835Z,12.4
2023-05-13T01:16:07.065Z,12.4
2023-05-13T01:17:27.318Z,12.4
2023-05-13T01:18:40.456Z,12.4
2023-05-13T01:19:49.903Z,12.4
2023-05-13T01:20:57.798Z,12.4
2023-05-13T01:22:06.913Z,12.4
2023-05-13T01:23:16.897Z,12.4
2023-05-13T01:24:26.026Z,12.4
2023-05-13T01:25:46.782Z,12.4
2023-05-13T01:27:17.054Z,12.3
2023-05-13T01:28:24.757Z,12.3
2023-05-13T01:29:31.808Z,12.3
2023-05-13T01:30:39.551Z,12.3
2023-05-13T01:31:46.567Z,12.3
2023-05-13T01:32:53.486Z,12.3
2023-05-13T01:34:03.364Z,12.3
2023-05-13T01:35:10.341Z,12.4
2023-05-13T01:36:17.930Z,12.4
2023-05-13T01:37:35.976Z,12.4
2023-05-13T01:38:43.213Z,12.4
2023-05-13T01:39:50.135Z,12.5
2023-05-13T01:40:57.261Z,12.4
2023-05-13T01:42:04.417Z,12.4
2023-05-13T01:43:11.324Z,12.5
2023-05-13T01:44:18.311Z,12.5
2023-05-13T01:45:36.654Z,12.5
2023-05-13T01:46:47.072Z,12.6
2023-05-13T01:47:56.583Z,12.6
2023-05-13T01:49:04.091Z,12.6
2023-05-13T01:50:10.987Z,12.6
2023-05-13T01:51:17.944Z,12.7
2023-05-13T01:52:25.569Z,12.7
2023-05-13T01:53:32.784Z,12.7
2023-05-13T01:54:46.689Z,12.7
2023-05-13T01:55:55.618Z,12.6
2023-05-13T01:57:02.616Z,12.6
2023-05-13T01:58:12.455Z,12.6
2023-05-13T01:59:22.061Z,12.5
2023-05-13T02:00:29.115Z,12.5
2023-05-13T02:01:39.281Z,12.5
2023-05-13T02:02:46.704Z,12.5
2023-05-13T02:03:53.835Z,12.5
2023-05-13T02:05:00.666Z,12.5
2023-05-13T02:06:07.650Z,12.5
2023-05-13T02:07:15.227Z,12.5
2023-05-13T02:08:25.375Z,12.6
2023-05-13T02:09:32.455Z,12.5
2023-05-13T02:10:42.516Z,12.5
2023-05-13T02:11:50.070Z,12.5
2023-05-13T02:12:56.976Z,12.5
2023-05-13T02:14:04.192Z,12.5
2023-05-13T02:15:11.132Z,12.5
2023-05-13T02:16:18.279Z,12.5
2023-05-13T02:17:25.355Z,12.5
2023-05-13T02:18:32.286Z,12.5
2023-05-13T02:19:42.160Z,12.5
2023-05-13T02:20:52.213Z,12.5
2023-05-13T02:22:05.900Z,12.5
2023-05-13T02:23:12.844Z,12.5
2023-05-13T02:24:19.914Z,12.5
2023-05-13T02:25:26.832Z,12.5
2023-05-13T02:26:35.297Z,12.6
2023-05-13T02:27:44.789Z,12.6
2023-05-13T02:28:52.566Z,12.6
2023-05-13T02:30:03.784Z,12.6
2023-05-13T02:31:16.865Z,12.6
2023-05-13T02:32:36.758Z,12.6
2023-05-13T02:33:44.494Z,12.6
2023-05-13T02:34:51.529Z,12.6
2023-05-13T02:35:59.461Z,12.6
2023-05-13T02:37:06.707Z,12.6
2023-05-13T02:38:13.740Z,12.6
2023-05-13T02:39:28.549Z,12.6
2023-05-13T02:40:40.073Z,12.6
2023-05-13T02:41:47.148Z,12.6
2023-05-13T02:43:03.644Z,12.6
2023-05-13T02:44:18.744Z,12.6
2023-05-13T02:45:35.037Z,12.6
2023-05-13T02:46:46.429Z,12.6
2023-05-13T02:48:02.059Z,12.6
2023-05-13T02:49:08.987Z,12.5
2023-05-13T02:50:18.581Z,12.5
2023-05-13T02:51:33.753Z,12.5
2023-05-13T02:52:43.442Z,12.4
2023-05-13T02:53:53.438Z,12.5
2023-05-13T02:55:10.823Z,12.5
2023-05-13T02:56:17.891Z,12.5
2023-05-13T02:57:25.355Z,12.5
2023-05-13T02:58:39.466Z,12.6
2023-05-13T02:59:46.555Z,12.6
2023-05-13T03:00:53.655Z,12.6
2023-05-13T03:02:06.898Z,12.6
2023-05-13T03:03:18.698Z,12.6
2023-05-13T03:04:28.768Z,12.6
2023-05-13T03:05:38.550Z,12.6
2023-05-13T03:06:45.540Z,12.6
2023-05-13T03:07:52.560Z,12.6
2023-05-13T03:08:59.628Z,12.6
2023-05-13T03:10:08.489Z,12.6
2023-05-13T03:11:35.164Z,12.6
2023-05-13T03:12:42.449Z,12.5
2023-05-13T03:13:50.026Z,12.6
2023-05-13T03:15:10.193Z,12.6
2023-05-13T03:16:20.905Z,12.6
2023-05-13T03:17:28.162Z,12.6
2023-05-13T03:18:51.961Z,12.6
2023-05-13T03:20:06.310Z,12.6
2023-05-13T03:21:13.646Z,12.6
2023-05-13T03:22:23.720Z,12.6
2023-05-13T03:23:31.540Z,12.6
2023-05-13T03:24:39.179Z,12.5
2023-05-13T03:25:57.160Z,12.5
2023-05-13T03:27:13.968Z,12.6
2023-05-13T03:28:31.023Z,12.6
2023-05-13T03:29:50.751Z,12.6
2023-05-13T03:31:01.301Z,12.6
2023-05-13T03:32:08.321Z,12.6
2023-05-13T03:33:21.571Z,12.6
2023-05-13T03:34:28.903Z,12.6
2023-05-13T03:35:36.484Z,12.7
2023-05-13T03:36:43.452Z,12.7
2023-05-13T03:37:53.385Z,12.7
2023-05-13T03:39:00.791Z,12.7
2023-05-13T03:40:07.894Z,12.7
2023-05-13T03:41:15.058Z,12.7
2023-05-13T03:42:22.169Z,12.7
2023-05-13T03:43:29.254Z,12.7
2023-05-13T03:44:36.591Z,12.8
2023-05-13T03:45:43.665Z,12.8
2023-05-13T03:46:53.933Z,12.7
2023-05-13T03:48:00.933Z,12.6
2023-05-13T03:49:10.774Z,12.6
2023-05-13T03:50:17.843Z,12.7
2023-05-13T03:51:25.750Z,12.7
2023-05-13T03:52:32.684Z,12.8
2023-05-13T03:53:41.889Z,12.8
2023-05-13T03:54:48.901Z,12.8
2023-05-13T03:56:06.839Z,12.8
2023-05-13T03:57:14.318Z,12.7
2023-05-13T03:59:48.257Z,12.7
2023-05-13T04:00:55.779Z,12.7
2023-05-13T04:02:03.349Z,12.8
2023-05-13T04:03:10.514Z,12.8
2023-05-13T04:04:21.018Z,12.8
2023-05-13T04:05:28.230Z,12.8
2023-05-13T04:06:42.396Z,12.8
2023-05-13T04:07:57.892Z,12.8
2023-05-13T04:09:04.864Z,12.8
2023-05-13T04:10:14.683Z,12.8
2023-05-13T04:11:22.104Z,12.8
2023-05-13T04:12:29.218Z,12.8
2023-05-13T04:13:36.650Z,12.8
2023-05-13T04:14:43.893Z,12.8
2023-05-13T04:16:00.172Z,12.8
2023-05-13T04:18:33.508Z,12.8
2023-05-13T04:19:45.824Z,12.8
2023-05-13T04:20:52.773Z,12.7
2023-05-13T04:21:59.946Z,12.8
2023-05-13T04:23:13.345Z,12.8
2023-05-13T04:24:20.325Z,12.8
2023-05-13T04:26:53.175Z,12.9
2023-05-13T04:28:09.827Z,12.9
2023-05-13T04:29:27.592Z,13
2023-05-13T04:30:49.775Z,13
2023-05-13T04:31:57.561Z,13
2023-05-13T04:33:22.445Z,13
2023-05-13T04:34:51.232Z,13
2023-05-13T04:36:10.112Z,13
2023-05-13T04:37:19.566Z,13
2023-05-13T04:38:26.527Z,13
2023-05-13T04:39:34.250Z,13
2023-05-13T04:40:56.725Z,13
2023-05-13T04:42:10.876Z,13
2023-05-13T04:43:18.164Z,13.1
2023-05-13T04:44:36.639Z,13
2023-05-13T04:45:43.683Z,13.1
2023-05-13T04:46:56.677Z,13.1
2023-05-13T04:48:14.152Z,13.1
2023-05-13T04:49:21.203Z,13.1
2023-05-13T04:50:28.479Z,13.1
2023-05-13T04:51:35.526Z,13.2
2023-05-13T04:52:49.209Z,13.1
2023-05-13T04:53:59.187Z,13.2
2023-05-13T04:55:06.249Z,13.2
2023-05-13T04:56:18.034Z,13.2
2023-05-13T04:57:29.023Z,13.1
2023-05-13T04:58:36.018Z,13.2
2023-05-13T04:59:43.129Z,13.1
2023-05-13T05:01:08.384Z,13.1
2023-05-13T05:02:15.466Z,13.2
2023-05-13T05:03:22.859Z,13.2
2023-05-13T05:04:34.923Z,13.1
2023-05-13T05:05:42.376Z,13.1
2023-05-13T05:06:52.120Z,13.1
2023-05-13T05:07:59.283Z,13.1
2023-05-13T05:09:06.374Z,13.1
2023-05-13T05:10:14.178Z,13.1
2023-05-13T05:11:21.227Z,13.1
2023-05-13T05:12:28.914Z,13.2
2023-05-13T05:13:35.953Z,13.1
2023-05-13T05:14:43.046Z,13.1
2023-05-13T05:15:50.119Z,13.2
2023-05-13T05:16:57.095Z,13.2
2023-05-13T05:18:04.151Z,13.2
2023-05-13T05:19:11.175Z,13.1
2023-05-13T05:20:21.270Z,13.2
2023-05-13T05:21:28.285Z,13.2
2023-05-13T05:22:35.386Z,13.2
2023-05-13T05:23:42.408Z,13.2
2023-05-13T05:24:55.597Z,13.1
2023-05-13T05:26:10.904Z,13.2
2023-05-13T05:27:09.758Z,13.2
2023-05-13T05:28:19.633Z,13.2
2023-05-13T05:29:27.109Z,13.1
2023-05-13T05:30:34.111Z,13.1
2023-05-13T05:31:41.182Z,13.2
2023-05-13T05:33:03.891Z,13.2
2023-05-13T05:34:20.982Z,13.2
2023-05-13T05:35:34.912Z,13.2
2023-05-13T05:36:52.756Z,13.2
2023-05-13T05:38:24.376Z,13.2
2023-05-13T05:39:44.429Z,13.2
2023-05-13T05:41:02.091Z,13.2
2023-05-13T05:42:11.064Z,13.1
2023-05-13T05:43:18.125Z,13.1
2023-05-13T05:44:25.415Z,13.1
2023-05-13T05:45:35.273Z,13.2
2023-05-13T05:46:50.315Z,13.2
2023-05-13T05:48:03.150Z,13.2
2023-05-13T05:49:16.365Z,13.2
2023-05-13T05:50:26.576Z,13.2
2023-05-13T05:51:40.494Z,13.3
2023-05-13T05:54:08.763Z,13.3
2023-05-13T05:55:17.773Z,13.3
2023-05-13T05:56:43.969Z,13.3
2023-05-13T05:57:56.603Z,13.2
2023-05-13T05:59:04.250Z,13.3
2023-05-13T06:00:22.819Z,13.3
2023-05-13T06:01:29.978Z,13.3
2023-05-13T06:02:37.066Z,13.1
2023-05-13T06:03:44.052Z,13.2
2023-05-13T06:04:51.037Z,13.2
2023-05-13T06:06:02.979Z,13.3
2023-05-13T06:07:10.291Z,13.5
2023-05-13T06:08:17.872Z,13.5
2023-05-13T06:09:27.886Z,13.6
2023-05-13T06:10:56.128Z,13.6
2023-05-13T06:12:16.085Z,13.7
2023-05-13T06:13:23.695Z,13.7
2023-05-13T06:14:33.780Z,13.8
2023-05-13T06:15:46.173Z,13.8
2023-05-13T06:16:54.317Z,13.9
2023-05-13T06:18:00.534Z,14
2023-05-13T06:19:07.716Z,14
2023-05-13T06:20:16.901Z,14.1
2023-05-13T06:21:26.940Z,14.1
2023-05-13T06:22:45.085Z,14.2
2023-05-13T06:23:52.822Z,14.2
2023-05-13T06:25:00.045Z,14.2
2023-05-13T06:26:07.086Z,14.3
2023-05-13T06:27:16.812Z,14.4
2023-05-13T06:28:24.464Z,14.4
2023-05-13T06:29:34.183Z,14.4
2023-05-13T06:30:44.658Z,14.2
2023-05-13T06:31:52.244Z,14.2
2023-05-13T06:33:01.859Z,14.3
2023-05-13T06:34:20.613Z,14.3
2023-05-13T06:35:27.978Z,14.4
2023-05-13T06:36:35.854Z,14.5
2023-05-13T06:37:44.387Z,14.5
2023-05-13T06:38:54.533Z,14.6
2023-05-13T06:40:01.639Z,14.6
2023-05-13T06:41:11.688Z,14.7
2023-05-13T06:42:32.459Z,14.8
2023-05-13T06:43:42.481Z,14.8
2023-05-13T06:44:59.493Z,14.8
2023-05-13T06:46:15.603Z,14.8
2023-05-13T06:47:25.456Z,14.8
2023-05-13T06:48:33.339Z,14.9
2023-05-13T06:49:40.739Z,15.2
2023-05-13T06:50:47.806Z,15.3
2023-05-13T06:51:54.851Z,15.5
2023-05-13T06:53:01.953Z,15.4
2023-05-13T06:54:09.907Z,15.5
2023-05-13T06:55:33.664Z,15.5
2023-05-13T06:56:51.521Z,15.5
2023-05-13T06:58:01.559Z,15.2
2023-05-13T06:59:08.730Z,15.4
2023-05-13T07:00:15.740Z,15.3
2023-05-13T07:01:22.996Z,15.4
2023-05-13T07:02:38.354Z,15.4
2023-05-13T07:03:50.393Z,15.5
2023-05-13T07:04:57.805Z,15.7
2023-05-13T07:06:04.898Z,15.7
2023-05-13T07:07:14.828Z,15.6
2023-05-13T07:08:24.795Z,15.5
2023-05-13T07:09:32.820Z,15.5
2023-05-13T07:10:44.669Z,15.7
2023-05-13T07:12:07.481Z,15.8
2023-05-13T07:13:15.236Z,15.8
2023-05-13T07:14:22.644Z,15.9
2023-05-13T07:15:29.662Z,16
2023-05-13T07:16:50.650Z,16
2023-05-13T07:17:57.810Z,16
2023-05-13T07:19:05.959Z,16
2023-05-13T07:20:18.056Z,16.2
2023-05-13T07:21:25.654Z,16.3
2023-05-13T07:22:33.651Z,16.5
2023-05-13T07:23:42.018Z,16.5
2023-05-13T07:24:48.049Z,16.5
2023-05-13T07:25:55.047Z,16.5
2023-05-13T07:27:13.812Z,16.6
2023-05-13T07:28:21.194Z,16.8
2023-05-13T07:29:41.294Z,16.9
2023-05-13T07:30:48.492Z,17
2023-05-13T07:32:02.980Z,17.1
2023-05-13T07:33:20.146Z,17.3
2023-05-13T07:34:30.499Z,17.2
2023-05-13T07:36:03.334Z,17.4
2023-05-13T07:37:19.750Z,17.5
2023-05-13T07:38:27.272Z,17.4
2023-05-13T07:39:44.316Z,17.5
2023-05-13T07:40:58.285Z,17.9
2023-05-13T07:42:10.148Z,18
2023-05-13T07:43:39.313Z,17.8
2023-05-13T07:44:48.981Z,18.1
2023-05-13T07:46:10.049Z,18.1
2023-05-13T07:47:19.592Z,18.2
2023-05-13T07:48:38.658Z,18.2
2023-05-13T07:49:50.046Z,18
2023-05-13T07:51:05.688Z,18.1
2023-05-13T07:52:18.220Z,18.2
2023-05-13T07:53:25.863Z,18.3
2023-05-13T07:54:32.888Z,18.3
2023-05-13T07:56:00.205Z,18.1
2023-05-13T07:57:15.508Z,17.7
2023-05-13T07:58:28.460Z,17.7
2023-05-13T07:59:39.142Z,17.8
2023-05-13T08:00:52.465Z,17.8
2023-05-13T08:02:02.437Z,18
2023-05-13T08:03:24.010Z,17.9
2023-05-13T08:04:46.920Z,17.8
2023-05-13T08:05:59.333Z,17.8
2023-05-13T08:07:06.681Z,18.4
2023-05-13T08:08:14.317Z,18.4
2023-05-13T08:09:21.632Z,18.5
2023-05-13T08:10:30.656Z,18.3
2023-05-13T08:11:39.087Z,18.5
2023-05-13T08:12:51.053Z,18.6
2023-05-13T08:14:05.286Z,18.5
2023-05-13T08:15:12.935Z,18.7
2023-05-13T08:16:22.271Z,18.8
2023-05-13T08:17:32.929Z,19
2023-05-13T08:18:42.115Z,19
2023-05-13T08:19:59.980Z,19.1
2023-05-13T08:21:09.751Z,19
2023-05-13T08:22:19.171Z,19
2023-05-13T08:23:45.695Z,18.9
2023-05-13T08:24:57.139Z,18.8
2023-05-13T08:26:14.963Z,18.6
2023-05-13T08:27:36.830Z,18.5
2023-05-13T08:28:46.907Z,18.7
2023-05-13T08:30:01.425Z,18.6
2023-05-13T08:31:09.389Z,18.7
2023-05-13T08:32:19.576Z,18.6
2023-05-13T08:33:29.274Z,18.7
2023-05-13T08:34:36.334Z,18.7
2023-05-13T08:35:53.794Z,18.8
2023-05-13T08:37:01.188Z,18.8
2023-05-13T08:38:08.281Z,18.9
2023-05-13T08:39:15.600Z,19.1
2023-05-13T08:40:22.893Z,19.3
2023-05-13T08:41:33.896Z,19
2023-05-13T08:42:41.026Z,18.8
2023-05-13T08:43:48.010Z,18.7
2023-05-13T08:44:55.027Z,18.7
2023-05-13T08:46:08.212Z,18.4
2023-05-13T08:47:20.958Z,18.5
2023-05-13T08:48:31.214Z,18.7
2023-05-13T08:49:38.459Z,18.9
2023-05-13T08:50:45.503Z,19
2023-05-13T08:51:52.543Z,19.1
2023-05-13T08:52:59.672Z,19.3
2023-05-13T08:54:07.590Z,19.4
2023-05-13T08:55:15.234Z,19.6
2023-05-13T08:56:24.402Z,19.6
2023-05-13T08:57:35.647Z,19.8
2023-05-13T08:58:54.428Z,20
2023-05-13T09:00:02.230Z,19.9
2023-05-13T09:01:09.678Z,20
2023-05-13T09:02:30.103Z,20.2
2023-05-13T09:03:37.517Z,20.1
2023-05-13T09:04:48.405Z,19.9
2023-05-13T09:05:55.336Z,19.9
2023-05-13T09:07:18.584Z,19.9
2023-05-13T09:08:37.757Z,19.9
2023-05-13T09:09:46.887Z,20.2
2023-05-13T09:10:54.676Z,20.3
2023-05-13T09:12:07.194Z,20.3
2023-05-13T09:13:18.300Z,20.3
2023-05-13T09:14:28.919Z,20.3
2023-05-13T09:15:54.502Z,20.3
2023-05-13T09:17:01.455Z,20
2023-05-13T09:18:19.207Z,19.9
2023-05-13T09:19:25.591Z,19.7
2023-05-13T09:20:47.712Z,19.2
2023-05-13T09:21:56.386Z,19.2
2023-05-13T09:23:11.553Z,19.4
2023-05-13T09:24:21.407Z,19.5
2023-05-13T09:25:28.886Z,19.5
2023-05-13T09:26:37.160Z,19.3
2023-05-13T09:27:44.065Z,19.3
2023-05-13T09:29:04.053Z,19.4
2023-05-13T09:30:20.378Z,19.5
2023-05-13T09:31:27.319Z,19.5
2023-05-13T09:32:37.487Z,19.5
2023-05-13T09:33:56.251Z,19.6
2023-05-13T09:35:17.659Z,19.4
2023-05-13T09:36:33.860Z,19.1
2023-05-13T09:37:44.470Z,19.2
2023-05-13T09:39:01.859Z,19
2023-05-13T09:40:10.920Z,19
2023-05-13T09:41:26.478Z,19.1
2023-05-13T09:42:41.018Z,19
2023-05-13T09:43:59.843Z,19.2
2023-05-13T09:45:15.266Z,19
2023-05-13T09:46:35.554Z,19
2023-05-13T09:47:42.545Z,18.8
2023-05-13T09:48:49.874Z,18.8
2023-05-13T09:50:02.176Z,18.9
2023-05-13T09:51:12.749Z,18.9
2023-05-13T09:52:28.813Z,19
2023-05-13T09:53:45.919Z,18.8
2023-05-13T09:54:53.298Z,18.7
2023-05-13T09:56:06.952Z,18.8
2023-05-13T09:57:14.163Z,18.8
2023-05-13T09:58:21.985Z,18.8
2023-05-13T09:59:31.459Z,18.7
2023-05-13T10:00:39.442Z,18.7
2023-05-13T10:01:51.124Z,18.8
2023-05-13T10:03:02.252Z,18.9
2023-05-13T10:04:12.768Z,18.8
2023-05-13T10:05:20.617Z,18.6
2023-05-13T10:06:30.371Z,19
2023-05-13T10:07:40.385Z,19
2023-05-13T10:09:05.154Z,19
2023-05-13T10:10:23.688Z,19
2023-05-13T10:11:36.397Z,19
2023-05-13T10:12:48.519Z,19.1
2023-05-13T10:13:55.639Z,19.2
2023-05-13T10:15:02.544Z,19
2023-05-13T10:16:11.332Z,19
2023-05-13T10:17:19.249Z,18.9
2023-05-13T10:18:29.485Z,18.8
2023-05-13T10:19:36.389Z,18.9
2023-05-13T10:20:44.444Z,18.8
2023-05-13T10:22:00.092Z,18.9
2023-05-13T10:23:13.966Z,18.9
2023-05-13T10:24:25.910Z,18.9
2023-05-13T10:25:33.247Z,18.9
2023-05-13T10:26:49.947Z,18.8
2023-05-13T10:27:57.237Z,18.8
2023-05-13T10:29:04.280Z,18.8
2023-05-13T10:30:17.155Z,18.7
2023-05-13T10:31:35.371Z,18.9
2023-05-13T10:32:42.569Z,18.7
2023-05-13T10:33:49.388Z,18.9
2023-05-13T10:34:56.515Z,19
2023-05-13T10:36:13.575Z,19
2023-05-13T10:37:30.662Z,19.1
2023-05-13T10:38:47.737Z,19.2
2023-05-13T10:40:05.248Z,19.1
2023-05-13T10:41:19.834Z,19.1
2023-05-13T10:42:40.293Z,19.1
2023-05-13T10:43:47.283Z,19.1
2023-05-13T10:44:54.339Z,19
2023-05-13T10:46:04.889Z,19.1
2023-05-13T10:47:11.739Z,19.1
2023-05-13T10:48:18.852Z,19.2
2023-05-13T10:49:29.350Z,19
2023-05-13T10:50:36.344Z,18.8
2023-05-13T10:51:43.302Z,18.9
2023-05-13T10:52:54.431Z,18.8
2023-05-13T10:54:02.129Z,18.9
2023-05-13T10:55:10.337Z,18.9
2023-05-13T10:56:19.944Z,18.9
2023-05-13T10:57:27.363Z,18.9
2023-05-13T10:58:42.066Z,18.8
2023-05-13T10:59:50.202Z,18.8
2023-05-13T11:01:01.044Z,18.9
2023-05-13T11:02:22.650Z,18.6
2023-05-13T11:03:29.711Z,18.6
2023-05-13T11:04:36.596Z,18.7
2023-05-13T11:05:43.602Z,18.6
2023-05-13T11:06:53.536Z,18.6
2023-05-13T11:08:00.667Z,18.6
2023-05-13T11:09:07.897Z,18.7
2023-05-13T11:10:15.079Z,18.6
2023-05-13T11:11:27.124Z,18.5
2023-05-13T11:12:39.439Z,18.4
2023-05-13T11:13:50.602Z,18.5
2023-05-13T11:14:59.828Z,18.5
2023-05-13T11:16:07.839Z,18.5
2023-05-13T11:17:14.766Z,18.5
2023-05-13T11:18:24.900Z,18.5
2023-05-13T11:19:35.343Z,18.6
2023-05-13T11:20:51.971Z,18.6
2023-05-13T11:21:51.406Z,18.6
2023-05-13T11:23:03.670Z,18.6
2023-05-13T11:24:10.642Z,18.7
2023-05-13T11:25:17.712Z,18.7
2023-05-13T11:26:27.242Z,18.6
2023-05-13T11:27:39.803Z,18.6
2023-05-13T11:28:48.003Z,18.7
2023-05-13T11:29:58.170Z,18.7
2023-05-13T11:31:05.148Z,18.7
2023-05-13T11:32:19.787Z,18.7
2023-05-13T11:33:37.574Z,18.6
2023-05-13T11:34:54.912Z,18.7
2023-05-13T11:36:01.986Z,18.6
2023-05-13T11:37:11.216Z,18.7
2023-05-13T11:38:22.278Z,18.7
2023-05-13T11:39:31.535Z,18.7
2023-05-13T11:40:39.540Z,18.6
2023-05-13T11:41:47.337Z,18.6
2023-05-13T11:42:54.594Z,18.5
2023-05-13T11:44:01.882Z,18.6
2023-05-13T11:45:14.964Z,18.6
2023-05-13T11:46:25.381Z,18.6
2023-05-13T11:47:32.361Z,18.6
2023-05-13T11:48:42.902Z,18.6
2023-05-13T11:49:49.928Z,18.7
2023-05-13T11:50:57.138Z,18.8
2023-05-13T11:52:04.089Z,18.8
2023-05-13T11:53:13.611Z,18.9
2023-05-13T11:54:26.388Z,18.9
2023-05-13T11:55:33.307Z,18.9
2023-05-13T11:56:40.295Z,18.9
2023-05-13T11:57:49.344Z,18.9
2023-05-13T11:58:56.363Z,18.7
2023-05-13T12:00:13.436Z,18.7
2023-05-13T12:01:20.585Z,18.8
2023-05-13T12:02:27.690Z,18.8
2023-05-13T12:03:34.786Z,18.8
2023-05-13T12:04:41.958Z,18.8
2023-05-13T12:05:49.078Z,18.9
2023-05-13T12:06:56.081Z,19
2023-05-13T12:08:03.405Z,19
2023-05-13T12:09:13.240Z,19
2023-05-13T12:10:20.228Z,19.1
2023-05-13T12:11:30.822Z,19.1
2023-05-13T12:12:37.850Z,19.1
2023-05-13T12:13:48.043Z,19.1
2023-05-13T12:14:55.146Z,19.1
2023-05-13T12:16:02.299Z,19.1
2023-05-13T12:17:09.427Z,19.1
2023-05-13T12:18:20.510Z,19
2023-05-13T12:19:29.614Z,19
2023-05-13T12:20:36.966Z,19.1
2023-05-13T12:21:43.987Z,18.9
2023-05-13T12:22:51.366Z,18.9
2023-05-13T12:23:58.694Z,19
2023-05-13T12:25:05.745Z,19
2023-05-13T12:26:27.900Z,19.1
2023-05-13T12:27:35.751Z,19.2
2023-05-13T12:28:42.942Z,19
2023-05-13T12:29:53.823Z,19
2023-05-13T12:31:01.103Z,19
2023-05-13T12:32:08.069Z,19.1
2023-05-13T12:33:15.088Z,19.1
2023-05-13T12:34:27.253Z,19.2
2023-05-13T12:35:36.900Z,19.3
2023-05-13T12:36:44.057Z,19.2
2023-05-13T12:37:51.196Z,19.4
2023-05-13T12:39:01.414Z,19.4
2023-05-13T12:40:08.461Z,19.6
2023-05-13T12:41:15.641Z,19.6
2023-05-13T12:42:22.649Z,19.6
2023-05-13T12:43:29.780Z,19.5
2023-05-13T12:44:41.700Z,19.6
2023-05-13T12:45:48.725Z,19.5
2023-05-13T12:46:55.821Z,19.6
2023-05-13T12:48:03.785Z,19.5
2023-05-13T12:49:10.929Z,19.6
2023-05-13T12:50:18.376Z,19.6
2023-05-13T12:51:25.482Z,19.5
2023-05-13T12:52:35.974Z,19.6
2023-05-13T12:53:45.996Z,19.7
2023-05-13T12:54:53.074Z,19.8
2023-05-13T12:56:00.162Z,19.8
2023-05-13T12:57:07.657Z,19.9
2023-05-13T12:58:14.783Z,19.9
2023-05-13T12:59:23.742Z,19.7
2023-05-13T13:00:33.334Z,19.7
2023-05-13T13:01:42.068Z,19.4
2023-05-13T13:02:49.147Z,19.7
2023-05-13T13:03:58.742Z,19.6
2023-05-13T13:05:05.584Z,19.7
2023-05-13T13:06:14.138Z,19.7
2023-05-13T13:07:21.223Z,19.6
2023-05-13T13:08:29.957Z,19.6
2023-05-13T13:09:35.564Z,19.7
2023-05-13T13:10:42.736Z,19.7
2023-05-13T13:11:49.881Z,19.5
2023-05-13T13:12:57.061Z,19.5
2023-05-13T13:14:07.297Z,19.5
2023-05-13T13:15:14.496Z,19.5
2023-05-13T13:16:21.692Z,19.5
2023-05-13T13:17:28.754Z,19.5
2023-05-13T13:18:36.852Z,19.5
2023-05-13T13:19:43.816Z,19.3
2023-05-13T13:20:56.609Z,19.3
2023-05-13T13:22:03.968Z,19.2
2023-05-13T13:23:21.863Z,19.2
2023-05-13T13:24:28.925Z,19.3
2023-05-13T13:25:35.820Z,19.3
2023-05-13T13:26:42.893Z,19.3
2023-05-13T13:27:50.087Z,19.4
2023-05-13T13:28:57.134Z,19.2
2023-05-13T13:30:04.591Z,19.3
2023-05-13T13:31:11.794Z,19.4
2023-05-13T13:32:18.876Z,19.4
2023-05-13T13:33:26.011Z,19.5
2023-05-13T13:34:33.011Z,19.5
2023-05-13T13:35:41.509Z,19.5
2023-05-13T13:36:53.328Z,19.5
2023-05-13T13:38:00.360Z,19.4
2023-05-13T13:39:07.466Z,19.4
2023-05-13T13:40:14.601Z,19.4
2023-05-13T13:41:22.111Z,19.3
2023-05-13T13:42:43.116Z,19.3
2023-05-13T13:43:39.139Z,19.3
2023-05-13T13:44:46.197Z,19.3
2023-05-13T13:45:53.226Z,19.3
2023-05-13T13:47:00.222Z,19.2
2023-05-13T13:48:07.722Z,19.3
2023-05-13T13:49:22.994Z,19.2
2023-05-13T13:50:22.127Z,19.2
2023-05-13T13:51:29.055Z,19.2
2023-05-13T13:52:38.835Z,19.3
2023-05-13T13:53:46.468Z,19.3
2023-05-13T13:54:53.535Z,19.4
2023-05-13T13:56:00.642Z,19.4
2023-05-13T13:57:07.734Z,19.3
2023-05-13T13:58:15.558Z,19.3
2023-05-13T13:59:26.532Z,19.4
2023-05-13T14:00:33.602Z,19.4
2023-05-13T14:01:41.209Z,19.4
2023-05-13T14:02:48.802Z,19.4
2023-05-13T14:03:55.856Z,19.4
2023-05-13T14:05:12.852Z,19.5
2023-05-13T14:06:20.478Z,19.4
2023-05-13T14:07:27.647Z,19.4
2023-05-13T14:08:34.798Z,19.5
2023-05-13T14:09:41.906Z,19.4
2023-05-13T14:10:48.906Z,19.4
2023-05-13T14:11:55.976Z,19.4
2023-05-13T14:13:35.166Z,19.4
2023-05-13T14:14:42.120Z,19.4
2023-05-13T14:15:49.283Z,19.2
2023-05-13T14:16:56.312Z,19.1
2023-05-13T14:18:03.365Z,19.1
2023-05-13T14:19:10.453Z,19.1
2023-05-13T14:20:17.524Z,19.1
2023-05-13T14:21:28.287Z,19.1
2023-05-13T14:22:35.258Z,19.1
2023-05-13T14:23:42.324Z,19.1
2023-05-13T14:24:49.296Z,19.1
2023-05-13T14:25:56.331Z,19
2023-05-13T14:27:03.360Z,19
2023-05-13T14:28:10.421Z,19.1
2023-05-13T14:29:17.469Z,19
2023-05-13T14:30:24.608Z,19.1
2023-05-13T14:31:31.546Z,19.1
2023-05-13T14:32:38.542Z,19
2023-05-13T14:33:45.570Z,19
2023-05-13T14:34:52.610Z,18.9
2023-05-13T14:36:03.767Z,18.8
2023-05-13T14:37:10.827Z,18.9
2023-05-13T14:38:17.940Z,18.8
2023-05-13T14:39:24.993Z,18.9
2023-05-13T14:40:35.103Z,19
2023-05-13T14:41:42.158Z,19
2023-05-13T14:42:49.232Z,18.9
2023-05-13T14:43:56.170Z,18.9
2023-05-13T14:45:04.659Z,18.9
2023-05-13T14:46:11.802Z,18.8
2023-05-13T14:47:18.825Z,18.8
2023-05-13T14:48:25.844Z,18.8
2023-05-13T14:49:32.888Z,18.8
2023-05-13T14:50:41.790Z,18.8
2023-05-13T14:51:47.371Z,18.8
2023-05-13T14:52:54.354Z,18.8
2023-05-13T14:54:01.381Z,18.8
2023-05-13T14:55:12.746Z,18.5
2023-05-13T14:56:19.838Z,18.8
2023-05-13T14:57:26.916Z,18.8
2023-05-13T14:58:33.938Z,18.8
2023-05-13T14:59:40.976Z,18.8
2023-05-13T15:00:48.197Z,18.8
2023-05-13T15:01:55.308Z,18.8
2023-05-13T15:03:06.701Z,18.9
2023-05-13T15:04:13.776Z,18.9
2023-05-13T15:05:20.795Z,18.9
2023-05-13T15:06:27.866Z,18.8
2023-05-13T15:07:34.933Z,18.8
2023-05-13T15:08:41.983Z,18.8
2023-05-13T15:09:53.883Z,18.8
2023-05-13T15:11:00.901Z,18.8
2023-05-13T15:12:11.051Z,18.8
2023-05-13T15:13:18.146Z,18.7
2023-05-13T15:14:27.837Z,18.7
2023-05-13T15:15:34.974Z,18.7
2023-05-13T15:16:42.112Z,18.7
2023-05-13T15:17:49.304Z,18.7
2023-05-13T15:18:56.323Z,18.7
2023-05-13T15:20:05.173Z,18.8
2023-05-13T15:21:13.139Z,18.7
2023-05-13T15:22:20.174Z,18.7
2023-05-13T15:23:27.115Z,18.7
2023-05-13T15:24:37.175Z,18.7
2023-05-13T15:25:44.161Z,18.7
2023-05-13T15:26:51.309Z,18.7
2023-05-13T15:27:58.382Z,18.7
2023-05-13T15:29:05.394Z,18.7
2023-05-13T15:30:12.446Z,18.7
2023-05-13T15:31:19.549Z,18.7
2023-05-13T15:32:26.427Z,18.7
2023-05-13T15:33:33.562Z,18.8
2023-05-13T15:34:40.666Z,18.7
2023-05-13T15:35:50.477Z,18.7
2023-05-13T15:36:57.495Z,18.8
2023-05-13T15:38:04.484Z,18.8
2023-05-13T15:39:11.505Z,18.8
2023-05-13T15:40:21.106Z,18.7
2023-05-13T15:41:33.156Z,18.7
2023-05-13T15:42:40.185Z,18.7
2023-05-13T15:43:49.984Z,18.6
2023-05-13T15:44:58.047Z,18.7